sensor_id;sensor_type;location;lat;lon;timestamp;P1;durP1;ratioP1;P2;durP2;ratioP2
12194;SDS011;27023;42.680;23.132;2022-08-21T00:02:18;8.97;;;8.70;;
12194;SDS011;27023;42.680;23.132;2022-08-21T00:04:46;9.97;;;9.67;;
12194;SDS011;27023;42.680;23.132;2022-08-21T00:07:15;10.60;;;10.20;;
12194;SDS011;27023;42.680;23.132;2022-08-21T00:09:43;11.07;;;10.67;;
12194;SDS011;27023;42.680;23.132;2022-08-21T00:12:10;10.53;;;10.17;;
12194;SDS011;27023;42.680;23.132;2022-08-21T00:14:37;7.57;;;7.17;;
12194;SDS011;27023;42.680;23.132;2022-08-21T00:17:05;8.47;;;8.17;;
12194;SDS011;27023;42.680;23.132;2022-08-21T00:19:33;11.23;;;10.73;;
12194;SDS011;27023;42.680;23.132;2022-08-21T00:22:00;14.77;;;14.20;;
12194;SDS011;27023;42.680;23.132;2022-08-21T00:24:26;13.00;;;12.53;;
12194;SDS011;27023;42.680;23.132;2022-08-21T00:26:53;10.67;;;10.37;;
12194;SDS011;27023;42.680;23.132;2022-08-21T00:29:20;8.67;;;8.40;;
12194;SDS011;27023;42.680;23.132;2022-08-21T00:31:47;12.27;;;11.77;;
12194;SDS011;27023;42.680;23.132;2022-08-21T00:34:15;14.57;;;14.00;;
12194;SDS011;27023;42.680;23.132;2022-08-21T00:36:42;19.13;;;18.33;;
12194;SDS011;27023;42.680;23.132;2022-08-21T00:39:09;21.23;;;20.33;;
12194;SDS011;27023;42.680;23.132;2022-08-21T00:41:36;7.60;;;7.37;;
12194;SDS011;27023;42.680;23.132;2022-08-21T00:44:05;14.57;;;13.97;;
12194;SDS011;27023;42.680;23.132;2022-08-21T00:46:34;26.40;;;25.23;;
12194;SDS011;27023;42.680;23.132;2022-08-21T00:49:01;23.23;;;22.17;;
12194;SDS011;27023;42.680;23.132;2022-08-21T00:51:32;5.77;;;5.63;;
12194;SDS011;27023;42.680;23.132;2022-08-21T00:54:03;13.73;;;13.20;;
12194;SDS011;27023;42.680;23.132;2022-08-21T00:56:30;18.10;;;17.20;;
12194;SDS011;27023;42.680;23.132;2022-08-21T00:58:57;22.47;;;21.47;;
12194;SDS011;27023;42.680;23.132;2022-08-21T01:01:25;23.57;;;22.53;;
12194;SDS011;27023;42.680;23.132;2022-08-21T01:03:52;25.23;;;20.83;;
12194;SDS011;27023;42.680;23.132;2022-08-21T01:06:19;20.70;;;19.83;;
12194;SDS011;27023;42.680;23.132;2022-08-21T01:08:48;17.60;;;16.70;;
12194;SDS011;27023;42.680;23.132;2022-08-21T01:11:15;23.53;;;22.50;;
12194;SDS011;27023;42.680;23.132;2022-08-21T01:13:43;15.97;;;15.33;;
12194;SDS011;27023;42.680;23.132;2022-08-21T01:16:12;15.40;;;14.80;;
12194;SDS011;27023;42.680;23.132;2022-08-21T01:18:41;12.47;;;12.03;;
12194;SDS011;27023;42.680;23.132;2022-08-21T01:21:11;13.27;;;12.77;;
12194;SDS011;27023;42.680;23.132;2022-08-21T01:23:40;20.57;;;19.63;;
12194;SDS011;27023;42.680;23.132;2022-08-21T01:26:08;12.63;;;12.13;;
12194;SDS011;27023;42.680;23.132;2022-08-21T01:28:37;15.90;;;15.23;;
12194;SDS011;27023;42.680;23.132;2022-08-21T01:31:08;23.23;;;22.20;;
12194;SDS011;27023;42.680;23.132;2022-08-21T01:33:38;16.87;;;16.13;;
12194;SDS011;27023;42.680;23.132;2022-08-21T01:36:05;34.37;;;32.70;;
12194;SDS011;27023;42.680;23.132;2022-08-21T01:38:33;17.43;;;16.67;;
12194;SDS011;27023;42.680;23.132;2022-08-21T01:41:00;17.13;;;16.40;;
12194;SDS011;27023;42.680;23.132;2022-08-21T01:43:27;17.53;;;16.80;;
12194;SDS011;27023;42.680;23.132;2022-08-21T01:45:54;16.30;;;15.67;;
12194;SDS011;27023;42.680;23.132;2022-08-21T01:48:20;20.17;;;19.30;;
12194;SDS011;27023;42.680;23.132;2022-08-21T01:50:47;27.07;;;25.87;;
12194;SDS011;27023;42.680;23.132;2022-08-21T01:53:14;18.10;;;17.33;;
12194;SDS011;27023;42.680;23.132;2022-08-21T01:55:43;16.63;;;15.90;;
12194;SDS011;27023;42.680;23.132;2022-08-21T01:58:10;26.23;;;25.07;;
12194;SDS011;27023;42.680;23.132;2022-08-21T02:00:36;14.40;;;13.80;;
12194;SDS011;27023;42.680;23.132;2022-08-21T02:03:03;17.30;;;16.60;;
12194;SDS011;27023;42.680;23.132;2022-08-21T02:05:30;26.83;;;25.63;;
12194;SDS011;27023;42.680;23.132;2022-08-21T02:07:57;28.50;;;27.23;;
12194;SDS011;27023;42.680;23.132;2022-08-21T02:10:25;26.13;;;25.03;;
12194;SDS011;27023;42.680;23.132;2022-08-21T02:12:55;19.60;;;18.80;;
12194;SDS011;27023;42.680;23.132;2022-08-21T02:15:23;17.43;;;16.70;;
12194;SDS011;27023;42.680;23.132;2022-08-21T02:17:52;31.23;;;29.83;;
12194;SDS011;27023;42.680;23.132;2022-08-21T02:20:22;22.80;;;21.87;;
12194;SDS011;27023;42.680;23.132;2022-08-21T02:22:50;15.47;;;14.83;;
12194;SDS011;27023;42.680;23.132;2022-08-21T02:25:18;17.77;;;17.07;;
12194;SDS011;27023;42.680;23.132;2022-08-21T02:27:46;22.57;;;21.63;;
12194;SDS011;27023;42.680;23.132;2022-08-21T02:30:15;20.30;;;19.50;;
12194;SDS011;27023;42.680;23.132;2022-08-21T02:32:44;20.53;;;19.73;;
12194;SDS011;27023;42.680;23.132;2022-08-21T02:35:11;20.03;;;19.23;;
12194;SDS011;27023;42.680;23.132;2022-08-21T02:37:45;17.57;;;16.87;;
12194;SDS011;27023;42.680;23.132;2022-08-21T02:40:14;21.17;;;20.27;;
12194;SDS011;27023;42.680;23.132;2022-08-21T02:42:42;20.47;;;19.60;;
12194;SDS011;27023;42.680;23.132;2022-08-21T02:45:09;28.50;;;27.20;;
12194;SDS011;27023;42.680;23.132;2022-08-21T02:47:38;23.80;;;22.80;;
12194;SDS011;27023;42.680;23.132;2022-08-21T02:50:05;30.30;;;28.97;;
12194;SDS011;27023;42.680;23.132;2022-08-21T02:52:33;23.97;;;22.97;;
12194;SDS011;27023;42.680;23.132;2022-08-21T02:55:01;33.47;;;31.97;;
12194;SDS011;27023;42.680;23.132;2022-08-21T02:57:29;18.97;;;18.20;;
12194;SDS011;27023;42.680;23.132;2022-08-21T02:59:57;18.10;;;17.33;;
12194;SDS011;27023;42.680;23.132;2022-08-21T03:02:24;31.10;;;29.70;;
12194;SDS011;27023;42.680;23.132;2022-08-21T03:04:52;22.57;;;21.60;;
12194;SDS011;27023;42.680;23.132;2022-08-21T03:07:19;13.60;;;13.10;;
12194;SDS011;27023;42.680;23.132;2022-08-21T03:09:45;19.17;;;18.37;;
12194;SDS011;27023;42.680;23.132;2022-08-21T03:12:12;22.97;;;22.00;;
12194;SDS011;27023;42.680;23.132;2022-08-21T03:14:39;19.17;;;18.37;;
12194;SDS011;27023;42.680;23.132;2022-08-21T03:17:05;21.77;;;20.87;;
12194;SDS011;27023;42.680;23.132;2022-08-21T03:19:32;21.43;;;20.53;;
12194;SDS011;27023;42.680;23.132;2022-08-21T03:22:00;20.60;;;19.73;;
12194;SDS011;27023;42.680;23.132;2022-08-21T03:24:27;27.53;;;26.33;;
12194;SDS011;27023;42.680;23.132;2022-08-21T03:26:54;26.37;;;25.17;;
12194;SDS011;27023;42.680;23.132;2022-08-21T03:29:21;18.50;;;17.80;;
12194;SDS011;27023;42.680;23.132;2022-08-21T03:31:47;20.83;;;19.97;;
12194;SDS011;27023;42.680;23.132;2022-08-21T03:34:14;21.93;;;21.03;;
12194;SDS011;27023;42.680;23.132;2022-08-21T03:36:41;21.40;;;20.50;;
12194;SDS011;27023;42.680;23.132;2022-08-21T03:39:09;20.40;;;19.60;;
12194;SDS011;27023;42.680;23.132;2022-08-21T03:41:36;14.60;;;14.10;;
12194;SDS011;27023;42.680;23.132;2022-08-21T03:44:03;18.10;;;17.40;;
12194;SDS011;27023;42.680;23.132;2022-08-21T03:46:29;13.73;;;13.20;;
12194;SDS011;27023;42.680;23.132;2022-08-21T03:48:56;16.47;;;15.87;;
12194;SDS011;27023;42.680;23.132;2022-08-21T03:51:23;17.80;;;17.10;;
12194;SDS011;27023;42.680;23.132;2022-08-21T03:53:50;16.23;;;15.63;;
12194;SDS011;27023;42.680;23.132;2022-08-21T03:56:18;19.43;;;18.63;;
12194;SDS011;27023;42.680;23.132;2022-08-21T03:58:45;12.60;;;12.10;;
12194;SDS011;27023;42.680;23.132;2022-08-21T04:01:12;18.50;;;17.80;;
12194;SDS011;27023;42.680;23.132;2022-08-21T04:03:39;10.27;;;9.93;;
12194;SDS011;27023;42.680;23.132;2022-08-21T04:06:06;16.37;;;15.77;;
12194;SDS011;27023;42.680;23.132;2022-08-21T04:08:33;16.10;;;15.50;;
12194;SDS011;27023;42.680;23.132;2022-08-21T04:11:00;14.50;;;14.00;;
12194;SDS011;27023;42.680;23.132;2022-08-21T04:13:29;10.90;;;10.53;;
12194;SDS011;27023;42.680;23.132;2022-08-21T04:15:56;14.93;;;14.43;;
12194;SDS011;27023;42.680;23.132;2022-08-21T04:18:24;17.93;;;17.23;;
12194;SDS011;27023;42.680;23.132;2022-08-21T04:20:51;16.77;;;16.17;;
12194;SDS011;27023;42.680;23.132;2022-08-21T04:23:19;11.00;;;10.63;;
12194;SDS011;27023;42.680;23.132;2022-08-21T04:25:47;9.07;;;8.73;;
12194;SDS011;27023;42.680;23.132;2022-08-21T04:28:14;9.93;;;9.60;;
12194;SDS011;27023;42.680;23.132;2022-08-21T04:30:42;12.37;;;11.93;;
12194;SDS011;27023;42.680;23.132;2022-08-21T04:33:09;17.30;;;16.60;;
12194;SDS011;27023;42.680;23.132;2022-08-21T04:35:35;4.97;;;4.87;;
12194;SDS011;27023;42.680;23.132;2022-08-21T04:38:02;10.97;;;10.67;;
12194;SDS011;27023;42.680;23.132;2022-08-21T04:40:29;6.73;;;6.53;;
12194;SDS011;27023;42.680;23.132;2022-08-21T04:42:57;9.10;;;8.83;;
12194;SDS011;27023;42.680;23.132;2022-08-21T04:45:28;8.57;;;8.27;;
12194;SDS011;27023;42.680;23.132;2022-08-21T04:47:59;3.47;;;3.37;;
12194;SDS011;27023;42.680;23.132;2022-08-21T04:50:29;9.07;;;8.77;;
12194;SDS011;27023;42.680;23.132;2022-08-21T04:52:57;2.20;;;2.20;;
12194;SDS011;27023;42.680;23.132;2022-08-21T04:55:26;3.07;;;2.97;;
12194;SDS011;27023;42.680;23.132;2022-08-21T04:57:53;2.53;;;2.53;;
12194;SDS011;27023;42.680;23.132;2022-08-21T05:00:21;3.80;;;3.67;;
12194;SDS011;27023;42.680;23.132;2022-08-21T05:02:49;2.33;;;2.33;;
12194;SDS011;27023;42.680;23.132;2022-08-21T05:05:22;4.43;;;4.33;;
12194;SDS011;27023;42.680;23.132;2022-08-21T05:07:50;3.80;;;2.90;;
12194;SDS011;27023;42.680;23.132;2022-08-21T05:10:17;3.90;;;3.50;;
12194;SDS011;27023;42.680;23.132;2022-08-21T05:12:44;2.87;;;2.77;;
12194;SDS011;27023;42.680;23.132;2022-08-21T05:15:12;2.70;;;2.60;;
12194;SDS011;27023;42.680;23.132;2022-08-21T05:17:39;3.03;;;2.93;;
12194;SDS011;27023;42.680;23.132;2022-08-21T05:20:06;2.17;;;2.07;;
12194;SDS011;27023;42.680;23.132;2022-08-21T05:22:35;10.03;;;9.70;;
12194;SDS011;27023;42.680;23.132;2022-08-21T05:25:02;2.37;;;2.33;;
12194;SDS011;27023;42.680;23.132;2022-08-21T05:27:29;1.97;;;1.97;;
12194;SDS011;27023;42.680;23.132;2022-08-21T05:29:56;2.47;;;2.47;;
12194;SDS011;27023;42.680;23.132;2022-08-21T05:32:23;2.20;;;2.10;;
12194;SDS011;27023;42.680;23.132;2022-08-21T05:34:53;1.90;;;1.90;;
12194;SDS011;27023;42.680;23.132;2022-08-21T05:37:22;2.63;;;2.53;;
12194;SDS011;27023;42.680;23.132;2022-08-21T05:39:50;2.87;;;2.83;;
12194;SDS011;27023;42.680;23.132;2022-08-21T05:42:17;2.50;;;2.50;;
12194;SDS011;27023;42.680;23.132;2022-08-21T05:44:44;1.73;;;1.73;;
12194;SDS011;27023;42.680;23.132;2022-08-21T05:47:11;1.83;;;1.83;;
12194;SDS011;27023;42.680;23.132;2022-08-21T05:49:38;2.33;;;2.23;;
12194;SDS011;27023;42.680;23.132;2022-08-21T05:52:04;2.73;;;2.63;;
12194;SDS011;27023;42.680;23.132;2022-08-21T05:54:32;2.13;;;2.13;;
12194;SDS011;27023;42.680;23.132;2022-08-21T05:57:00;2.10;;;2.10;;
12194;SDS011;27023;42.680;23.132;2022-08-21T05:59:27;9.40;;;6.47;;
12194;SDS011;27023;42.680;23.132;2022-08-21T06:01:53;2.47;;;2.37;;
12194;SDS011;27023;42.680;23.132;2022-08-21T06:04:20;1.90;;;1.87;;
12194;SDS011;27023;42.680;23.132;2022-08-21T06:06:47;3.73;;;3.53;;
12194;SDS011;27023;42.680;23.132;2022-08-21T06:09:14;4.80;;;4.40;;
12194;SDS011;27023;42.680;23.132;2022-08-21T06:11:40;3.70;;;3.50;;
12194;SDS011;27023;42.680;23.132;2022-08-21T06:14:09;2.85;;;2.75;;
12194;SDS011;27023;42.680;23.132;2022-08-21T06:16:35;2.97;;;2.87;;
12194;SDS011;27023;42.680;23.132;2022-08-21T06:19:02;2.08;;;2.05;;
12194;SDS011;27023;42.680;23.132;2022-08-21T06:21:29;1.88;;;1.88;;
12194;SDS011;27023;42.680;23.132;2022-08-21T06:23:55;3.42;;;3.15;;
12194;SDS011;27023;42.680;23.132;2022-08-21T06:26:22;3.22;;;3.13;;
12194;SDS011;27023;42.680;23.132;2022-08-21T06:28:49;3.42;;;3.30;;
12194;SDS011;27023;42.680;23.132;2022-08-21T06:31:18;2.88;;;2.88;;
12194;SDS011;27023;42.680;23.132;2022-08-21T06:33:46;3.80;;;3.60;;
12194;SDS011;27023;42.680;23.132;2022-08-21T06:36:13;2.65;;;2.55;;
12194;SDS011;27023;42.680;23.132;2022-08-21T06:38:40;2.28;;;2.25;;
12194;SDS011;27023;42.680;23.132;2022-08-21T06:41:07;2.63;;;2.63;;
12194;SDS011;27023;42.680;23.132;2022-08-21T06:43:34;2.20;;;2.20;;
12194;SDS011;27023;42.680;23.132;2022-08-21T06:46:01;2.03;;;2.03;;
12194;SDS011;27023;42.680;23.132;2022-08-21T06:48:29;2.03;;;2.03;;
12194;SDS011;27023;42.680;23.132;2022-08-21T06:50:57;4.40;;;3.85;;
12194;SDS011;27023;42.680;23.132;2022-08-21T06:53:24;3.17;;;3.05;;
12194;SDS011;27023;42.680;23.132;2022-08-21T06:55:51;4.68;;;3.08;;
12194;SDS011;27023;42.680;23.132;2022-08-21T06:58:18;3.13;;;3.03;;
12194;SDS011;27023;42.680;23.132;2022-08-21T07:00:47;3.78;;;3.65;;
12194;SDS011;27023;42.680;23.132;2022-08-21T07:03:17;3.97;;;3.78;;
12194;SDS011;27023;42.680;23.132;2022-08-21T07:05:47;3.00;;;2.88;;
12194;SDS011;27023;42.680;23.132;2022-08-21T07:08:14;3.47;;;3.33;;
12194;SDS011;27023;42.680;23.132;2022-08-21T07:10:41;2.65;;;2.45;;
12194;SDS011;27023;42.680;23.132;2022-08-21T07:13:08;2.88;;;2.85;;
12194;SDS011;27023;42.680;23.132;2022-08-21T07:15:35;2.75;;;2.65;;
12194;SDS011;27023;42.680;23.132;2022-08-21T07:18:02;21.13;;;3.65;;
12194;SDS011;27023;42.680;23.132;2022-08-21T07:20:29;2.13;;;2.13;;
12194;SDS011;27023;42.680;23.132;2022-08-21T07:23:01;2.75;;;2.67;;
12194;SDS011;27023;42.680;23.132;2022-08-21T07:25:30;2.55;;;2.55;;
12194;SDS011;27023;42.680;23.132;2022-08-21T07:27:57;3.08;;;2.97;;
12194;SDS011;27023;42.680;23.132;2022-08-21T07:30:24;3.30;;;3.22;;
12194;SDS011;27023;42.680;23.132;2022-08-21T07:32:50;2.85;;;2.80;;
12194;SDS011;27023;42.680;23.132;2022-08-21T07:35:18;2.92;;;2.92;;
12194;SDS011;27023;42.680;23.132;2022-08-21T07:37:45;1.80;;;1.80;;
12194;SDS011;27023;42.680;23.132;2022-08-21T07:40:14;2.85;;;2.85;;
12194;SDS011;27023;42.680;23.132;2022-08-21T07:42:42;2.40;;;2.40;;
12194;SDS011;27023;42.680;23.132;2022-08-21T07:45:11;4.22;;;4.03;;
12194;SDS011;27023;42.680;23.132;2022-08-21T07:47:38;2.72;;;2.72;;
12194;SDS011;27023;42.680;23.132;2022-08-21T07:50:06;2.78;;;2.67;;
12194;SDS011;27023;42.680;23.132;2022-08-21T07:52:33;2.33;;;2.33;;
12194;SDS011;27023;42.680;23.132;2022-08-21T07:55:00;3.03;;;2.92;;
12194;SDS011;27023;42.680;23.132;2022-08-21T07:57:28;2.90;;;2.83;;
12194;SDS011;27023;42.680;23.132;2022-08-21T07:59:55;2.53;;;2.47;;
12194;SDS011;27023;42.680;23.132;2022-08-21T08:02:22;3.55;;;3.45;;
12194;SDS011;27023;42.680;23.132;2022-08-21T08:04:50;2.70;;;2.60;;
12194;SDS011;27023;42.680;23.132;2022-08-21T08:07:17;2.85;;;2.78;;
12194;SDS011;27023;42.680;23.132;2022-08-21T08:09:44;3.58;;;2.83;;
12194;SDS011;27023;42.680;23.132;2022-08-21T08:12:11;4.07;;;3.53;;
12194;SDS011;27023;42.680;23.132;2022-08-21T08:14:39;2.83;;;2.72;;
12194;SDS011;27023;42.680;23.132;2022-08-21T08:17:05;3.53;;;3.42;;
12194;SDS011;27023;42.680;23.132;2022-08-21T08:19:32;3.10;;;3.00;;
12194;SDS011;27023;42.680;23.132;2022-08-21T08:21:59;3.22;;;2.97;;
12194;SDS011;27023;42.680;23.132;2022-08-21T08:24:26;2.97;;;2.88;;
12194;SDS011;27023;42.680;23.132;2022-08-21T08:26:53;3.08;;;2.90;;
12194;SDS011;27023;42.680;23.132;2022-08-21T08:29:22;2.20;;;2.20;;
12194;SDS011;27023;42.680;23.132;2022-08-21T08:31:50;2.88;;;2.78;;
12194;SDS011;27023;42.680;23.132;2022-08-21T08:34:17;2.67;;;2.58;;
12194;SDS011;27023;42.680;23.132;2022-08-21T08:36:44;3.33;;;3.22;;
12194;SDS011;27023;42.680;23.132;2022-08-21T08:39:11;3.45;;;3.28;;
12194;SDS011;27023;42.680;23.132;2022-08-21T08:41:38;2.15;;;2.15;;
12194;SDS011;27023;42.680;23.132;2022-08-21T08:44:06;3.08;;;3.00;;
12194;SDS011;27023;42.680;23.132;2022-08-21T08:46:35;2.88;;;2.80;;
12194;SDS011;27023;42.680;23.132;2022-08-21T08:49:08;2.63;;;2.63;;
12194;SDS011;27023;42.680;23.132;2022-08-21T08:51:39;3.03;;;3.03;;
12194;SDS011;27023;42.680;23.132;2022-08-21T08:54:10;4.63;;;4.20;;
12194;SDS011;27023;42.680;23.132;2022-08-21T08:56:41;3.20;;;3.10;;
12194;SDS011;27023;42.680;23.132;2022-08-21T08:59:11;2.87;;;2.77;;
12194;SDS011;27023;42.680;23.132;2022-08-21T09:01:41;2.70;;;2.65;;
12194;SDS011;27023;42.680;23.132;2022-08-21T09:04:10;3.08;;;2.97;;
12194;SDS011;27023;42.680;23.132;2022-08-21T09:06:44;4.15;;;3.78;;
12194;SDS011;27023;42.680;23.132;2022-08-21T09:09:31;2.50;;;2.50;;
12194;SDS011;27023;42.680;23.132;2022-08-21T09:12:12;3.85;;;3.55;;
12194;SDS011;27023;42.680;23.132;2022-08-21T09:14:47;3.08;;;3.05;;
12194;SDS011;27023;42.680;23.132;2022-08-21T09:17:26;4.53;;;3.45;;
12194;SDS011;27023;42.680;23.132;2022-08-21T09:20:14;2.05;;;2.05;;
12194;SDS011;27023;42.680;23.132;2022-08-21T09:22:53;4.18;;;3.13;;
12194;SDS011;27023;42.680;23.132;2022-08-21T09:25:30;3.13;;;3.00;;
12194;SDS011;27023;42.680;23.132;2022-08-21T09:28:00;3.33;;;3.15;;
12194;SDS011;27023;42.680;23.132;2022-08-21T09:30:27;3.85;;;3.75;;
12194;SDS011;27023;42.680;23.132;2022-08-21T09:32:56;4.13;;;3.85;;
12194;SDS011;27023;42.680;23.132;2022-08-21T09:35:24;3.88;;;3.80;;
12194;SDS011;27023;42.680;23.132;2022-08-21T09:37:52;2.95;;;2.85;;
12194;SDS011;27023;42.680;23.132;2022-08-21T09:40:30;3.70;;;3.60;;
12194;SDS011;27023;42.680;23.132;2022-08-21T09:42:59;2.92;;;2.83;;
12194;SDS011;27023;42.680;23.132;2022-08-21T09:45:29;2.35;;;2.35;;
12194;SDS011;27023;42.680;23.132;2022-08-21T09:48:07;2.97;;;2.78;;
12194;SDS011;27023;42.680;23.132;2022-08-21T09:50:36;3.28;;;3.17;;
12194;SDS011;27023;42.680;23.132;2022-08-21T09:53:03;2.97;;;2.92;;
12194;SDS011;27023;42.680;23.132;2022-08-21T09:55:32;2.53;;;2.53;;
12194;SDS011;27023;42.680;23.132;2022-08-21T09:58:21;2.58;;;2.58;;
12194;SDS011;27023;42.680;23.132;2022-08-21T10:00:59;3.35;;;3.05;;
12194;SDS011;27023;42.680;23.132;2022-08-21T10:03:27;2.75;;;2.65;;
12194;SDS011;27023;42.680;23.132;2022-08-21T10:05:57;3.30;;;3.20;;
12194;SDS011;27023;42.680;23.132;2022-08-21T10:08:28;3.78;;;3.67;;
12194;SDS011;27023;42.680;23.132;2022-08-21T10:10:56;3.85;;;3.67;;
12194;SDS011;27023;42.680;23.132;2022-08-21T10:13:31;2.85;;;2.83;;
12194;SDS011;27023;42.680;23.132;2022-08-21T10:16:10;3.17;;;3.17;;
12194;SDS011;27023;42.680;23.132;2022-08-21T10:18:46;3.25;;;3.20;;
12194;SDS011;27023;42.680;23.132;2022-08-21T10:21:30;4.78;;;4.35;;
12194;SDS011;27023;42.680;23.132;2022-08-21T10:24:06;3.70;;;3.67;;
12194;SDS011;27023;42.680;23.132;2022-08-21T10:26:48;6.07;;;5.10;;
12194;SDS011;27023;42.680;23.132;2022-08-21T10:29:28;3.13;;;3.05;;
12194;SDS011;27023;42.680;23.132;2022-08-21T10:32:07;2.88;;;2.88;;
12194;SDS011;27023;42.680;23.132;2022-08-21T10:34:43;3.38;;;3.28;;
12194;SDS011;27023;42.680;23.132;2022-08-21T10:37:23;3.28;;;3.17;;
12194;SDS011;27023;42.680;23.132;2022-08-21T10:40:01;3.88;;;3.60;;
12194;SDS011;27023;42.680;23.132;2022-08-21T10:42:36;2.60;;;2.50;;
12194;SDS011;27023;42.680;23.132;2022-08-21T10:45:11;2.65;;;2.45;;
12194;SDS011;27023;42.680;23.132;2022-08-21T10:47:44;2.55;;;2.50;;
12194;SDS011;27023;42.680;23.132;2022-08-21T10:50:17;3.17;;;3.08;;
12194;SDS011;27023;42.680;23.132;2022-08-21T10:52:59;2.85;;;2.75;;
12194;SDS011;27023;42.680;23.132;2022-08-21T10:55:35;3.28;;;3.05;;
12194;SDS011;27023;42.680;23.132;2022-08-21T10:58:08;2.22;;;2.13;;
12194;SDS011;27023;42.680;23.132;2022-08-21T11:00:39;2.20;;;2.20;;
12194;SDS011;27023;42.680;23.132;2022-08-21T11:03:11;2.22;;;2.13;;
12194;SDS011;27023;42.680;23.132;2022-08-21T11:05:42;2.40;;;2.30;;
12194;SDS011;27023;42.680;23.132;2022-08-21T11:08:17;1.98;;;1.88;;
12194;SDS011;27023;42.680;23.132;2022-08-21T11:10:48;1.92;;;1.83;;
12194;SDS011;27023;42.680;23.132;2022-08-21T11:13:19;2.88;;;2.83;;
12194;SDS011;27023;42.680;23.132;2022-08-21T11:16:05;2.45;;;2.45;;
12194;SDS011;27023;42.680;23.132;2022-08-21T11:18:38;1.95;;;1.88;;
12194;SDS011;27023;42.680;23.132;2022-08-21T11:21:14;1.65;;;1.65;;
12194;SDS011;27023;42.680;23.132;2022-08-21T11:23:57;2.42;;;2.25;;
12194;SDS011;27023;42.680;23.132;2022-08-21T11:26:30;2.17;;;2.17;;
12194;SDS011;27023;42.680;23.132;2022-08-21T11:29:04;1.42;;;1.42;;
12194;SDS011;27023;42.680;23.132;2022-08-21T11:31:40;2.20;;;2.10;;
12194;SDS011;27023;42.680;23.132;2022-08-21T11:34:19;6.47;;;3.30;;
12194;SDS011;27023;42.680;23.132;2022-08-21T11:36:56;2.22;;;2.03;;
12194;SDS011;27023;42.680;23.132;2022-08-21T11:39:33;2.05;;;1.95;;
12194;SDS011;27023;42.680;23.132;2022-08-21T11:42:08;1.73;;;1.73;;
12194;SDS011;27023;42.680;23.132;2022-08-21T11:44:45;2.45;;;2.45;;
12194;SDS011;27023;42.680;23.132;2022-08-21T11:47:22;2.20;;;2.10;;
12194;SDS011;27023;42.680;23.132;2022-08-21T11:50:00;2.50;;;2.33;;
12194;SDS011;27023;42.680;23.132;2022-08-21T11:52:37;2.45;;;2.35;;
12194;SDS011;27023;42.680;23.132;2022-08-21T11:55:10;2.75;;;2.53;;
12194;SDS011;27023;42.680;23.132;2022-08-21T11:57:44;3.05;;;2.85;;
12194;SDS011;27023;42.680;23.132;2022-08-21T12:00:17;2.13;;;2.00;;
12194;SDS011;27023;42.680;23.132;2022-08-21T12:02:50;2.67;;;2.53;;
12194;SDS011;27023;42.680;23.132;2022-08-21T12:05:24;1.63;;;1.63;;
12194;SDS011;27023;42.680;23.132;2022-08-21T12:08:03;3.17;;;2.97;;
12194;SDS011;27023;42.680;23.132;2022-08-21T12:10:34;2.05;;;1.95;;
12194;SDS011;27023;42.680;23.132;2022-08-21T12:13:06;1.73;;;1.73;;
12194;SDS011;27023;42.680;23.132;2022-08-21T12:15:35;4.80;;;3.35;;
12194;SDS011;27023;42.680;23.132;2022-08-21T12:18:02;2.30;;;2.20;;
12194;SDS011;27023;42.680;23.132;2022-08-21T12:20:35;2.17;;;2.08;;
12194;SDS011;27023;42.680;23.132;2022-08-21T12:23:26;2.65;;;2.45;;
12194;SDS011;27023;42.680;23.132;2022-08-21T12:26:18;8.52;;;5.38;;
12194;SDS011;27023;42.680;23.132;2022-08-21T12:29:02;2.22;;;2.13;;
12194;SDS011;27023;42.680;23.132;2022-08-21T12:31:31;5.90;;;3.33;;
12194;SDS011;27023;42.680;23.132;2022-08-21T12:33:58;3.15;;;2.95;;
12194;SDS011;27023;42.680;23.132;2022-08-21T12:36:30;2.70;;;2.65;;
12194;SDS011;27023;42.680;23.132;2022-08-21T12:39:11;3.30;;;2.92;;
12194;SDS011;27023;42.680;23.132;2022-08-21T12:41:45;3.15;;;3.05;;
12194;SDS011;27023;42.680;23.132;2022-08-21T12:44:17;2.97;;;2.88;;
12194;SDS011;27023;42.680;23.132;2022-08-21T12:46:51;2.13;;;2.10;;
12194;SDS011;27023;42.680;23.132;2022-08-21T12:49:28;3.30;;;3.20;;
12194;SDS011;27023;42.680;23.132;2022-08-21T12:52:01;2.90;;;2.75;;
12194;SDS011;27023;42.680;23.132;2022-08-21T12:54:36;2.58;;;2.58;;
12194;SDS011;27023;42.680;23.132;2022-08-21T12:57:06;4.55;;;3.30;;
12194;SDS011;27023;42.680;23.132;2022-08-21T12:59:36;2.63;;;2.30;;
12194;SDS011;27023;42.680;23.132;2022-08-21T13:02:07;2.40;;;2.30;;
12194;SDS011;27023;42.680;23.132;2022-08-21T13:04:41;2.17;;;1.90;;
12194;SDS011;27023;42.680;23.132;2022-08-21T13:07:09;2.50;;;2.40;;
12194;SDS011;27023;42.680;23.132;2022-08-21T13:09:40;1.90;;;1.90;;
12194;SDS011;27023;42.680;23.132;2022-08-21T13:12:12;2.65;;;2.58;;
12194;SDS011;27023;42.680;23.132;2022-08-21T13:14:41;3.05;;;2.95;;
12194;SDS011;27023;42.680;23.132;2022-08-21T13:17:11;3.17;;;3.08;;
12194;SDS011;27023;42.680;23.132;2022-08-21T13:19:39;2.78;;;2.65;;
12194;SDS011;27023;42.680;23.132;2022-08-21T13:22:11;3.00;;;2.80;;
12194;SDS011;27023;42.680;23.132;2022-08-21T13:24:39;3.65;;;3.53;;
12194;SDS011;27023;42.680;23.132;2022-08-21T13:27:16;2.63;;;2.53;;
12194;SDS011;27023;42.680;23.132;2022-08-21T13:29:47;4.13;;;3.63;;
12194;SDS011;27023;42.680;23.132;2022-08-21T13:32:18;3.25;;;3.15;;
12194;SDS011;27023;42.680;23.132;2022-08-21T13:34:50;3.40;;;3.20;;
12194;SDS011;27023;42.680;23.132;2022-08-21T13:37:38;11.93;;;3.17;;
12194;SDS011;27023;42.680;23.132;2022-08-21T13:40:07;2.55;;;2.45;;
12194;SDS011;27023;42.680;23.132;2022-08-21T13:42:40;3.15;;;3.00;;
12194;SDS011;27023;42.680;23.132;2022-08-21T13:45:11;3.83;;;3.53;;
12194;SDS011;27023;42.680;23.132;2022-08-21T13:47:40;3.20;;;3.00;;
12194;SDS011;27023;42.680;23.132;2022-08-21T13:50:08;3.67;;;3.47;;
12194;SDS011;27023;42.680;23.132;2022-08-21T13:52:46;4.35;;;4.07;;
12194;SDS011;27023;42.680;23.132;2022-08-21T13:55:16;2.33;;;2.28;;
12194;SDS011;27023;42.680;23.132;2022-08-21T13:57:44;2.55;;;2.45;;
12194;SDS011;27023;42.680;23.132;2022-08-21T14:00:13;2.20;;;2.13;;
12194;SDS011;27023;42.680;23.132;2022-08-21T14:02:43;3.30;;;3.20;;
12194;SDS011;27023;42.680;23.132;2022-08-21T14:05:14;2.72;;;2.72;;
12194;SDS011;27023;42.680;23.132;2022-08-21T14:07:43;2.45;;;2.35;;
12194;SDS011;27023;42.680;23.132;2022-08-21T14:10:12;2.85;;;2.78;;
12194;SDS011;27023;42.680;23.132;2022-08-21T14:12:48;3.33;;;3.22;;
12194;SDS011;27023;42.680;23.132;2022-08-21T14:15:19;3.17;;;3.08;;
12194;SDS011;27023;42.680;23.132;2022-08-21T14:17:50;2.75;;;2.70;;
12194;SDS011;27023;42.680;23.132;2022-08-21T14:20:25;2.72;;;2.63;;
12194;SDS011;27023;42.680;23.132;2022-08-21T14:22:54;2.85;;;2.75;;
12194;SDS011;27023;42.680;23.132;2022-08-21T14:25:28;3.00;;;2.90;;
12194;SDS011;27023;42.680;23.132;2022-08-21T14:28:02;3.95;;;3.78;;
12194;SDS011;27023;42.680;23.132;2022-08-21T14:30:35;2.38;;;2.30;;
12194;SDS011;27023;42.680;23.132;2022-08-21T14:33:07;2.13;;;2.13;;
12194;SDS011;27023;42.680;23.132;2022-08-21T14:35:36;3.92;;;3.83;;
12194;SDS011;27023;42.680;23.132;2022-08-21T14:38:10;3.65;;;3.45;;
12194;SDS011;27023;42.680;23.132;2022-08-21T14:40:38;2.28;;;2.28;;
12194;SDS011;27023;42.680;23.132;2022-08-21T14:43:09;2.95;;;2.85;;